Geotown, New York
Current Conditions -  °F | °C
As of 10:35 AM on Saturday 22 Nov 2014 (Local Time) from KN03 Reporting Station
Overcast Overcast  
Wind Chill: 24°   Ceiling: 5000
Heat Index: 32°   Visibility: 10mi
Dew Point: 12°   Wind: 9mph
Humidity: 44%   Direction: 210°SSW
Pressure: 30.23"   Gusts: NA
Location:  42.7638°N, 75.7522°W
Report Text: KN03 221535Z AUTO 21008KT 10SM OVC050 00/M11 A3023 RMK AO2
Loading
Personal Weather Stations






























Interactive Weather Map New forecast layout! Learn more

10-Day Weather Forecast

Advertisements
Track Severe Weather on mobile